Time;durP1;ratioP1;P1;durP2;ratioP2;P2;SDS_P1;SDS_P2;PMS_P1;PMS_P2;Temp;Humidity;BMP_temperature;BMP_pressure;BME280_temperature;BME280_humidity;BME280_pressure;Samples;Min_cycle;Max_cycle;Signal;HPM_P1;HPM_P2
2022/05/13 00:04:07;;;;;;;0.43;0.43;;;19.10;57.20;;;;;;20741400;28;20500;-75
2022/05/13 00:14:08;;;;;;;0.82;0.70;;;19.10;57.30;;;;;;20757935;28;20449;-75
2022/05/13 00:24:09;;;;;;;2.10;0.68;;;19.10;57.40;;;;;;20724364;28;20049;-76
2022/05/13 00:34:10;;;;;;;1.83;0.90;;;19.10;57.30;;;;;;20756475;28;20040;-76
2022/05/13 00:44:10;;;;;;;1.17;0.55;;;19.10;57.30;;;;;;20739785;28;20488;-75
2022/05/13 00:54:12;;;;;;;0.50;0.43;;;19.10;57.20;;;;;;20722764;28;20394;-75
2022/05/13 01:04:14;;;;;;;0.93;0.70;;;19.00;57.20;;;;;;20713559;28;20456;-76
2022/05/13 01:14:19;;;;;;;0.50;0.40;;;19.00;57.20;;;;;;20753768;28;20085;-75
2022/05/13 01:24:20;;;;;;;0.70;0.50;;;19.00;57.20;;;;;;20737380;28;20041;-75
2022/05/13 01:34:21;;;;;;;0.98;0.50;;;19.00;57.10;;;;;;20720651;28;20030;-75
2022/05/13 01:44:21;;;;;;;0.68;0.68;;;18.90;57.10;;;;;;20735710;28;20042;-75
2022/05/13 01:54:22;;;;;;;1.15;0.60;;;18.90;57.10;;;;;;20768178;28;20030;-75
2022/05/13 02:04:22;;;;;;;0.57;0.43;;;18.90;57.10;;;;;;20767248;28;20451;-75
2022/05/13 02:14:23;;;;;;;1.85;0.70;;;18.90;57.20;;;;;;20749578;28;20305;-75
2022/05/13 02:24:24;;;;;;;1.38;0.85;;;18.90;57.10;;;;;;20765206;28;20048;-75
2022/05/13 02:34:24;;;;;;;0.55;0.40;;;18.90;57.00;;;;;;20732215;28;20034;-75
2022/05/13 02:44:25;;;;;;;1.20;0.80;;;18.80;57.00;;;;;;20747355;28;20053;-75
2022/05/13 02:54:26;;;;;;;0.80;0.50;;;18.80;56.90;;;;;;20749181;28;20528;-75
2022/05/13 03:04:27;;;;;;;1.65;0.30;;;18.80;56.90;;;;;;20713407;28;20038;-75
2022/05/13 03:14:27;;;;;;;1.08;0.63;;;18.80;56.90;;;;;;20729151;28;20133;-75
2022/05/13 03:24:28;;;;;;;1.02;0.50;;;18.80;56.90;;;;;;20744206;28;20091;-75
2022/05/13 03:34:28;;;;;;;1.00;0.60;;;18.80;56.90;;;;;;20743837;28;20062;-76
2022/05/13 03:44:30;;;;;;;0.40;0.40;;;18.80;56.90;;;;;;20742759;28;20107;-75
2022/05/13 03:54:31;;;;;;;1.70;0.50;;;18.70;56.90;;;;;;20725958;28;20049;-75
2022/05/13 04:08:56;;;;;;;0.88;0.57;;;18.80;56.90;;;;;;20758135;28;20790;-76
2022/05/13 04:25:12;;;;;;;1.83;1.17;;;18.70;57.00;;;;;;20745196;28;20421;-77
2022/05/13 04:35:12;;;;;;;0.47;0.47;;;18.70;57.00;;;;;;20743330;28;20084;-76
2022/05/13 04:45:13;;;;;;;0.60;0.60;;;18.70;57.10;;;;;;20762091;28;20050;-73
2022/05/13 04:55:13;;;;;;;1.13;0.70;;;18.60;57.10;;;;;;20767188;28;20480;-75
2022/05/13 05:05:14;;;;;;;2.53;0.63;;;18.70;57.20;;;;;;20748088;28;20044;-74
2022/05/13 05:15:15;;;;;;;1.63;0.93;;;18.60;57.80;;;;;;20704671;28;20478;-73
2022/05/13 05:25:16;;;;;;;1.83;1.10;;;18.60;57.20;;;;;;20723071;28;20041;-72
2022/05/13 05:35:18;;;;;;;1.83;1.02;;;18.60;57.10;;;;;;20768999;28;20288;-73
2022/05/13 05:45:20;;;;;;;1.65;1.00;;;18.60;57.20;;;;;;20736664;28;20041;-75
2022/05/13 06:05:40;;;;;;;1.23;0.75;;;18.60;57.40;;;;;;20749418;28;20034;-73
2022/05/13 06:15:40;;;;;;;2.10;0.95;;;18.60;57.40;;;;;;20717600;28;20046;-73
2022/05/13 06:25:41;;;;;;;1.85;1.00;;;18.60;57.40;;;;;;20733938;28;20049;-73
2022/05/13 06:35:43;;;;;;;4.43;1.35;;;18.70;57.50;;;;;;20780841;28;20040;-73
2022/05/13 06:45:43;;;;;;;2.45;1.20;;;18.60;57.50;;;;;;20774510;28;20037;-74
2022/05/13 06:55:44;;;;;;;5.65;1.30;;;18.60;57.50;;;;;;20755871;28;20032;-73
2022/05/13 07:05:44;;;;;;;1.07;0.97;;;18.50;57.40;;;;;;20777696;28;20041;-73
2022/05/13 07:15:46;;;;;;;1.20;1.08;;;18.60;57.40;;;;;;21168912;23;20299;-74
2022/05/13 07:25:47;;;;;;;2.42;1.00;;;18.50;57.30;;;;;;20802859;28;20386;-72
2022/05/13 07:35:47;;;;;;;1.40;0.90;;;18.50;57.20;;;;;;20809805;28;20038;-72
2022/05/13 07:45:48;;;;;;;1.85;0.93;;;18.50;57.80;;;;;;20807633;28;20037;-72
2022/05/13 07:55:49;;;;;;;3.55;1.13;;;18.50;57.10;;;;;;20825092;28;20033;-72
2022/05/13 08:05:51;;;;;;;1.52;1.00;;;18.50;57.10;;;;;;20796093;28;20026;-73
2022/05/13 08:15:52;;;;;;;3.20;1.38;;;18.50;57.00;;;;;;20821346;28;20053;-74
2022/05/13 08:25:53;;;;;;;1.50;1.05;;;18.50;57.00;;;;;;20788953;28;20029;-73
2022/05/13 08:36:01;;;;;;;2.47;1.05;;;18.60;56.90;;;;;;20824690;28;20068;-73
2022/05/13 08:46:21;;;;;;;2.10;1.27;;;18.60;56.80;;;;;;20772768;28;20120;-73
2022/05/13 08:56:26;;;;;;;3.30;1.08;;;18.60;56.80;;;;;;20804165;28;20037;-74
2022/05/13 09:06:45;;;;;;;1.30;0.80;;;18.50;56.40;;;;;;20796334;28;20029;-74
2022/05/13 09:16:58;;;;;;;2.35;1.00;;;18.50;56.30;;;;;;20803718;28;20042;-76
2022/05/13 09:26:58;;;;;;;1.92;1.17;;;18.50;56.20;;;;;;20812539;28;20481;-75
2022/05/13 09:37:23;;;;;;;3.13;0.77;;;18.50;56.10;;;;;;20785411;28;20029;-76
2022/05/13 09:47:29;;;;;;;4.78;0.68;;;18.50;56.00;;;;;;20796162;28;20037;-75
2022/05/13 09:57:31;;;;;;;2.70;1.20;;;18.50;56.00;;;;;;20808043;28;20116;-74
2022/05/13 10:07:32;;;;;;;2.35;0.90;;;18.50;55.80;;;;;;20753460;28;20133;-75
2022/05/13 10:17:32;;;;;;;1.83;0.80;;;18.50;55.70;;;;;;20717243;28;20125;-75
2022/05/13 10:27:45;;;;;;;2.58;1.10;;;18.50;55.70;;;;;;20762647;28;20037;-78
2022/05/13 10:37:57;;;;;;;5.25;0.82;;;18.40;55.60;;;;;;20784105;28;20466;-71
2022/05/13 10:48:05;;;;;;;2.00;0.90;;;18.50;55.50;;;;;;20794794;28;20065;-76
2022/05/13 10:58:46;;;;;;;3.67;1.20;;;18.50;55.50;;;;;;20822764;28;20038;-78
2022/05/13 11:09:05;;;;;;;2.10;0.75;;;18.50;55.10;;;;;;20811870;28;20053;-72
2022/05/13 11:19:09;;;;;;;1.65;0.68;;;18.40;54.90;;;;;;20826159;28;20079;-72
2022/05/13 11:29:18;;;;;;;1.63;1.08;;;18.40;55.00;;;;;;20817808;28;20477;-73
2022/05/13 11:39:18;;;;;;;3.08;0.80;;;18.40;54.90;;;;;;20777163;28;20095;-76
2022/05/13 11:49:21;;;;;;;3.42;0.70;;;18.40;54.90;;;;;;20790403;28;20029;-73
2022/05/13 11:59:31;;;;;;;1.73;0.55;;;18.40;54.80;;;;;;20805830;28;20045;-74
2022/05/13 12:09:37;;;;;;;1.33;0.73;;;18.40;55.20;;;;;;20822878;28;20700;-76
2022/05/13 12:19:40;;;;;;;;;;;18.40;55.10;;;;;;20773092;28;20037;-77
2022/05/13 12:30:05;;;;;;;1.92;0.90;;;18.50;54.80;;;;;;20805171;28;20280;-75
2022/05/13 12:40:28;;;;;;;2.28;0.90;;;18.40;54.70;;;;;;20791024;28;20073;-74
2022/05/13 12:50:29;;;;;;;1.25;0.82;;;18.40;54.70;;;;;;20794170;28;20073;-74
2022/05/13 13:00:35;;;;;;;0.90;0.60;;;18.40;55.40;;;;;;20811458;28;20037;-73
2022/05/13 13:10:36;;;;;;;2.60;0.70;;;18.40;54.80;;;;;;20819726;28;20665;-73
2022/05/13 13:21:09;;;;;;;1.77;0.52;;;18.40;54.80;;;;;;20786004;28;20097;-76
2022/05/13 13:31:14;;;;;;;5.43;1.23;;;18.40;54.70;;;;;;20798147;28;20049;-74
2022/05/13 13:41:32;;;;;;;2.72;1.05;;;18.40;54.40;;;;;;20802534;28;20041;-76
2022/05/13 13:51:35;;;;;;;1.05;0.50;;;18.40;53.90;;;;;;20786336;28;20534;-76
2022/05/13 14:01:43;;;;;;;3.60;0.82;;;18.40;53.90;;;;;;20784909;28;20474;-77
2022/05/13 14:11:44;;;;;;;3.90;0.90;;;18.40;54.00;;;;;;20783164;28;20122;-77
2022/05/13 14:21:50;;;;;;;6.32;1.10;;;18.40;53.80;;;;;;20775883;28;20071;-76
2022/05/13 14:31:56;;;;;;;3.17;0.85;;;18.40;53.80;;;;;;20815122;28;20086;-72
2022/05/13 14:42:10;;;;;;;3.85;0.70;;;18.40;53.70;;;;;;20795136;28;20060;-74
2022/05/13 14:52:34;;;;;;;5.93;1.20;;;18.50;54.00;;;;;;20793126;28;20052;-74
2022/05/13 15:02:45;;;;;;;0.95;0.57;;;18.60;54.00;;;;;;20758314;28;20124;-75
2022/05/13 15:12:46;;;;;;;2.30;0.80;;;18.70;54.30;;;;;;20748523;28;20040;-76
2022/05/13 15:22:47;;;;;;;2.35;0.60;;;18.80;54.40;;;;;;20824336;28;20112;-75
2022/05/13 15:32:50;;;;;;;4.45;0.65;;;18.80;54.60;;;;;;20828844;28;20172;-76
2022/05/13 15:42:51;;;;;;;1.85;0.63;;;18.80;54.70;;;;;;20830045;28;20072;-76
2022/05/13 15:52:51;;;;;;;2.78;0.90;;;18.80;54.80;;;;;;20830435;28;20064;-74
2022/05/13 16:02:53;;;;;;;2.67;0.63;;;18.80;54.80;;;;;;20806399;28;20545;-76
2022/05/13 16:12:58;;;;;;;4.25;0.65;;;18.70;54.70;;;;;;20791332;28;20049;-79
2022/05/13 16:22:59;;;;;;;4.33;1.50;;;18.70;54.50;;;;;;20797116;28;20037;-76
2022/05/13 16:32:59;;;;;;;2.80;0.88;;;18.70;54.60;;;;;;20805418;28;20150;-76
2022/05/13 16:43:01;;;;;;;9.13;1.27;;;18.70;54.60;;;;;;20775408;28;20030;-81
2022/05/13 16:53:03;;;;;;;4.32;1.40;;;18.70;54.80;;;;;;20823620;28;20033;-78
2022/05/13 17:03:04;;;;;;;8.80;0.82;;;18.70;54.90;;;;;;20788503;28;20394;-73
2022/05/13 17:23:24;;;;;;;8.10;1.10;;;18.80;55.40;;;;;;20808185;28;20030;-78
2022/05/13 17:33:24;;;;;;;5.10;1.02;;;18.80;55.40;;;;;;20771487;28;20030;-77
2022/05/13 17:43:25;;;;;;;2.15;0.70;;;18.80;55.50;;;;;;20805098;28;20120;-73
2022/05/13 17:53:25;;;;;;;5.75;1.02;;;18.80;55.50;;;;;;20785358;28;20026;-74
2022/05/13 18:03:26;;;;;;;4.05;0.70;;;18.80;55.60;;;;;;20799234;28;20033;-74
2022/05/13 18:13:27;;;;;;;1.38;0.90;;;18.70;55.50;;;;;;20772618;28;20045;-73
2022/05/13 18:23:28;;;;;;;3.13;0.90;;;18.70;55.50;;;;;;20765102;28;20651;-71
2022/05/13 18:33:28;;;;;;;1.67;0.60;;;18.70;55.50;;;;;;20758395;28;20040;-71
2022/05/13 18:53:49;;;;;;;1.83;0.90;;;18.60;55.80;;;;;;20810242;28;20288;-73
2022/05/13 19:03:50;;;;;;;1.45;0.57;;;18.60;56.20;;;;;;20775047;28;20400;-72
2022/05/13 19:13:53;;;;;;;0.97;0.70;;;18.60;56.40;;;;;;20786474;28;20038;-73
2022/05/13 19:23:54;;;;;;;2.58;0.65;;;18.50;56.50;;;;;;20831349;28;20296;-73
2022/05/13 19:33:55;;;;;;;3.83;0.50;;;18.50;56.70;;;;;;20784394;28;20401;-72
2022/05/13 19:43:56;;;;;;;3.28;0.52;;;18.50;56.80;;;;;;20806745;28;20112;-74
2022/05/13 19:53:58;;;;;;;3.07;0.60;;;18.40;56.80;;;;;;20790521;28;20051;-75
2022/05/13 20:03:59;;;;;;;3.78;0.55;;;18.50;56.90;;;;;;20781308;28;20041;-73
2022/05/13 20:13:59;;;;;;;2.75;0.70;;;18.50;57.00;;;;;;20789644;28;20412;-74
2022/05/13 20:24:00;;;;;;;1.63;0.60;;;18.40;57.00;;;;;;20806350;28;20389;-72
2022/05/13 20:34:01;;;;;;;1.70;0.60;;;18.50;57.10;;;;;;20771550;28;20041;-72
2022/05/13 20:44:01;;;;;;;0.85;0.50;;;18.40;57.10;;;;;;20771310;28;20148;-73
2022/05/13 20:54:04;;;;;;;1.40;0.70;;;18.40;57.20;;;;;;20788066;28;20052;-73
2022/05/13 21:04:06;;;;;;;0.52;0.40;;;18.40;57.90;;;;;;20787729;28;20040;-72
2022/05/13 21:14:07;;;;;;;1.13;0.50;;;18.40;57.20;;;;;;20787754;28;20124;-73
2022/05/13 21:24:08;;;;;;;1.02;0.60;;;18.30;57.20;;;;;;20798281;28;20125;-74
2022/05/13 21:44:27;;;;;;;2.65;0.70;;;18.30;57.30;;;;;;20806429;28;20037;-73
2022/05/13 21:54:28;;;;;;;1.00;0.50;;;18.30;57.30;;;;;;20800394;28;20549;-73
2022/05/13 22:04:29;;;;;;;0.95;0.57;;;18.20;57.30;;;;;;20784035;28;20037;-74
2022/05/13 22:14:29;;;;;;;1.70;0.75;;;18.30;57.40;;;;;;20799913;28;20436;-73
2022/05/13 22:24:30;;;;;;;2.63;0.70;;;18.30;57.40;;;;;;20798946;28;20393;-74
2022/05/13 22:34:31;;;;;;;1.27;0.88;;;18.20;57.40;;;;;;20796357;28;20374;-73
2022/05/13 22:44:32;;;;;;;1.85;0.80;;;18.20;58.00;;;;;;20797481;28;20192;-73
2022/05/13 22:54:33;;;;;;;0.70;0.57;;;18.20;57.40;;;;;;20796704;28;20086;-73
2022/05/13 23:04:34;;;;;;;3.38;0.90;;;18.20;57.40;;;;;;20796584;28;20107;-73
2022/05/13 23:14:35;;;;;;;1.42;0.70;;;18.20;57.40;;;;;;20795111;28;20037;-73
2022/05/13 23:24:35;;;;;;;1.17;0.80;;;18.10;57.30;;;;;;20778069;28;20037;-74
2022/05/13 23:34:36;;;;;;;1.38;0.80;;;18.10;57.30;;;;;;20793206;28;20042;-73
2022/05/13 23:44:37;;;;;;;1.70;0.75;;;18.10;57.30;;;;;;20793556;28;20432;-72
